Garretson, South Dakota
Current Conditions -  °F | °C
As of 1:56 PM on Friday 31 Oct 2014 (Local Time) from KFSD Reporting Station
Few Clouds Few Clouds  
Wind Chill: 34°   Ceiling: Unl
Heat Index: 38°   Visibility: 10mi
Dew Point: 20°   Wind: 5mph
Humidity: 48%   Direction: 70°ENE
Pressure: 30.52"   Gusts: NA
Location:  43.72°N, 96.5°W
Report Text: KFSD 311856Z 07004KT 10SM FEW250 03/M07 A3052 RMK AO2 SLP354 T00331067
Loading
Personal Weather Stations






























Interactive Weather Map
Tropical Storm Tracking
New forecast layout! Learn more

10-Day Weather Forecast

Advertisements
Track Severe Weather on mobile